KGAI/GAI METAR and TAF weather

Enter ICAO airport designator
Station Type Date Time Source
KGAI METAR 2022/06/30 01:56 UTC NOAA

KGAI 300156Z AUTO 00000KT 10SM CLR 22/18 A3022 RMK AO2 SLP242 T02220183


Station Type Date Time Source
KGAI Decoded METAR 2022/06/30 01:56 UTC NOAA

Station name not available
Jun 29, 2022 - 09:56 PM EDT / 2022.06.30 0156 UTC
Wind: Calm:0
Visibility: 10 mile(s):0
Sky conditions: clear
Temperature: 72.0 F (22.2 C)
Dew Point: 64.9 F (18.3 C)
Relative Humidity: 78%
Pressure (altimeter): 30.22 in. Hg (1023 hPa)
ob: KGAI 300156Z AUTO 00000KT 10SM CLR 22/18 A3022 RMK AO2 SLP242 T02220183
cycle: 2

Station Type Date Time Source
KGAI TAF UTC NOAA

Error!

Example: see airport list